sensor_id;sensor_type;location;lat;lon;timestamp;temperature;humidity
32895;DHT22;19251;49.484;8.260;2023-03-01T00:04:43;1.80;14.80
32895;DHT22;19251;49.484;8.260;2023-03-01T00:09:45;1.90;15.30
32895;DHT22;19251;49.484;8.260;2023-03-01T00:19:50;1.60;15.10
32895;DHT22;19251;49.484;8.260;2023-03-01T00:34:57;1.60;15.70
32895;DHT22;19251;49.484;8.260;2023-03-01T00:39:59;1.40;15.30
32895;DHT22;19251;49.484;8.260;2023-03-01T00:45:01;1.40;16.10
32895;DHT22;19251;49.484;8.260;2023-03-01T00:50:04;1.40;16.30
32895;DHT22;19251;49.484;8.260;2023-03-01T00:55:07;1.40;16.10
32895;DHT22;19251;49.484;8.260;2023-03-01T01:00:09;1.60;16.60
32895;DHT22;19251;49.484;8.260;2023-03-01T01:05:13;1.40;16.00
32895;DHT22;19251;49.484;8.260;2023-03-01T01:10:15;1.40;16.40
32895;DHT22;19251;49.484;8.260;2023-03-01T01:15:18;1.70;17.00
32895;DHT22;19251;49.484;8.260;2023-03-01T01:20:20;1.40;16.80
32895;DHT22;19251;49.484;8.260;2023-03-01T01:25:22;1.40;16.90
32895;DHT22;19251;49.484;8.260;2023-03-01T01:30:26;1.30;17.00
32895;DHT22;19251;49.484;8.260;2023-03-01T01:35:28;1.30;16.50
32895;DHT22;19251;49.484;8.260;2023-03-01T01:40:30;1.20;16.40
32895;DHT22;19251;49.484;8.260;2023-03-01T01:45:33;1.00;16.80
32895;DHT22;19251;49.484;8.260;2023-03-01T01:50:38;1.40;17.10
32895;DHT22;19251;49.484;8.260;2023-03-01T01:55:43;1.10;17.20
32895;DHT22;19251;49.484;8.260;2023-03-01T02:00:47;1.20;16.80
32895;DHT22;19251;49.484;8.260;2023-03-01T02:05:51;1.20;17.40
32895;DHT22;19251;49.484;8.260;2023-03-01T02:10:57;1.30;17.50
32895;DHT22;19251;49.484;8.260;2023-03-01T02:16:02;1.10;16.70
32895;DHT22;19251;49.484;8.260;2023-03-01T02:31:09;1.00;16.80
32895;DHT22;19251;49.484;8.260;2023-03-01T02:36:33;1.00;17.50
32895;DHT22;19251;49.484;8.260;2023-03-01T02:41:37;1.00;17.80
32895;DHT22;19251;49.484;8.260;2023-03-01T02:56:46;1.20;18.60
32895;DHT22;19251;49.484;8.260;2023-03-01T03:01:52;1.20;18.80
32895;DHT22;19251;49.484;8.260;2023-03-01T03:06:54;1.20;18.80
32895;DHT22;19251;49.484;8.260;2023-03-01T03:11:57;1.20;18.80
32895;DHT22;19251;49.484;8.260;2023-03-01T03:17:00;1.20;18.30
32895;DHT22;19251;49.484;8.260;2023-03-01T03:22:02;1.20;19.50
32895;DHT22;19251;49.484;8.260;2023-03-01T03:27:05;1.30;19.60
32895;DHT22;19251;49.484;8.260;2023-03-01T03:32:07;1.70;20.00
32895;DHT22;19251;49.484;8.260;2023-03-01T03:37:09;1.40;19.60
32895;DHT22;19251;49.484;8.260;2023-03-01T03:42:31;1.50;19.80
32895;DHT22;19251;49.484;8.260;2023-03-01T03:52:35;1.40;19.90
32895;DHT22;19251;49.484;8.260;2023-03-01T03:57:38;1.50;20.00
32895;DHT22;19251;49.484;8.260;2023-03-01T04:02:43;1.50;19.50
32895;DHT22;19251;49.484;8.260;2023-03-01T04:07:46;1.60;19.90
32895;DHT22;19251;49.484;8.260;2023-03-01T04:12:48;1.60;19.90
32895;DHT22;19251;49.484;8.260;2023-03-01T04:17:51;1.50;19.80
32895;DHT22;19251;49.484;8.260;2023-03-01T04:28:12;1.40;19.30
32895;DHT22;19251;49.484;8.260;2023-03-01T04:33:14;1.30;19.30
32895;DHT22;19251;49.484;8.260;2023-03-01T04:38:17;1.40;19.30
32895;DHT22;19251;49.484;8.260;2023-03-01T04:43:19;1.10;19.30
32895;DHT22;19251;49.484;8.260;2023-03-01T04:48:21;1.10;19.00
32895;DHT22;19251;49.484;8.260;2023-03-01T04:53:23;1.00;19.20
32895;DHT22;19251;49.484;8.260;2023-03-01T04:58:26;1.00;19.50
32895;DHT22;19251;49.484;8.260;2023-03-01T05:03:28;1.00;19.60
32895;DHT22;19251;49.484;8.260;2023-03-01T05:13:36;1.10;19.90
32895;DHT22;19251;49.484;8.260;2023-03-01T05:18:39;1.10;19.90
32895;DHT22;19251;49.484;8.260;2023-03-01T05:23:41;1.00;19.80
32895;DHT22;19251;49.484;8.260;2023-03-01T05:28:45;1.10;19.80
32895;DHT22;19251;49.484;8.260;2023-03-01T05:33:47;1.10;20.10
32895;DHT22;19251;49.484;8.260;2023-03-01T05:38:49;1.00;19.90
32895;DHT22;19251;49.484;8.260;2023-03-01T05:43:51;1.30;20.40
32895;DHT22;19251;49.484;8.260;2023-03-01T05:48:53;1.10;20.20
32895;DHT22;19251;49.484;8.260;2023-03-01T05:53:55;1.20;19.90
32895;DHT22;19251;49.484;8.260;2023-03-01T05:58:57;1.20;20.10
32895;DHT22;19251;49.484;8.260;2023-03-01T06:03:59;1.40;20.30
32895;DHT22;19251;49.484;8.260;2023-03-01T06:14:05;1.50;20.30
32895;DHT22;19251;49.484;8.260;2023-03-01T06:19:08;1.30;20.40
32895;DHT22;19251;49.484;8.260;2023-03-01T06:24:10;1.40;20.60
32895;DHT22;19251;49.484;8.260;2023-03-01T06:29:12;1.60;20.80
32895;DHT22;19251;49.484;8.260;2023-03-01T06:34:14;1.40;20.70
32895;DHT22;19251;49.484;8.260;2023-03-01T06:39:16;1.50;20.50
32895;DHT22;19251;49.484;8.260;2023-03-01T06:44:19;1.70;21.30
32895;DHT22;19251;49.484;8.260;2023-03-01T06:49:21;1.80;21.40
32895;DHT22;19251;49.484;8.260;2023-03-01T06:54:23;2.10;21.70
32895;DHT22;19251;49.484;8.260;2023-03-01T06:59:26;2.10;21.60
32895;DHT22;19251;49.484;8.260;2023-03-01T07:04:28;2.30;21.80
32895;DHT22;19251;49.484;8.260;2023-03-01T07:09:33;2.30;21.70
32895;DHT22;19251;49.484;8.260;2023-03-01T07:14:35;2.60;21.60
32895;DHT22;19251;49.484;8.260;2023-03-01T07:19:37;2.80;21.20
32895;DHT22;19251;49.484;8.260;2023-03-01T07:24:40;3.00;21.50
32895;DHT22;19251;49.484;8.260;2023-03-01T07:29:42;3.40;22.00
32895;DHT22;19251;49.484;8.260;2023-03-01T07:34:44;3.20;21.70
32895;DHT22;19251;49.484;8.260;2023-03-01T07:39:46;3.50;21.80
32895;DHT22;19251;49.484;8.260;2023-03-01T07:44:48;3.70;21.80
32895;DHT22;19251;49.484;8.260;2023-03-01T07:49:50;3.70;21.60
32895;DHT22;19251;49.484;8.260;2023-03-01T07:54:52;4.20;21.70
32895;DHT22;19251;49.484;8.260;2023-03-01T07:59:54;4.10;21.30
32895;DHT22;19251;49.484;8.260;2023-03-01T08:10:00;4.40;21.00
32895;DHT22;19251;49.484;8.260;2023-03-01T08:15:02;4.50;20.80
32895;DHT22;19251;49.484;8.260;2023-03-01T08:20:05;4.70;20.40
32895;DHT22;19251;49.484;8.260;2023-03-01T08:25:08;4.80;20.10
32895;DHT22;19251;49.484;8.260;2023-03-01T08:30:11;5.30;20.10
32895;DHT22;19251;49.484;8.260;2023-03-01T08:35:13;5.20;20.10
32895;DHT22;19251;49.484;8.260;2023-03-01T08:40:15;5.30;19.60
32895;DHT22;19251;49.484;8.260;2023-03-01T08:45:17;5.50;19.70
32895;DHT22;19251;49.484;8.260;2023-03-01T08:50:20;5.60;19.70
32895;DHT22;19251;49.484;8.260;2023-03-01T08:55:22;5.80;19.40
32895;DHT22;19251;49.484;8.260;2023-03-01T09:00:24;6.00;18.90
32895;DHT22;19251;49.484;8.260;2023-03-01T09:05:26;6.10;19.00
32895;DHT22;19251;49.484;8.260;2023-03-01T09:10:28;6.00;18.90
32895;DHT22;19251;49.484;8.260;2023-03-01T09:15:30;6.20;18.90
32895;DHT22;19251;49.484;8.260;2023-03-01T09:25:35;6.50;18.30
32895;DHT22;19251;49.484;8.260;2023-03-01T09:30:37;6.60;18.00
32895;DHT22;19251;49.484;8.260;2023-03-01T09:35:40;6.70;17.80
32895;DHT22;19251;49.484;8.260;2023-03-01T09:40:47;6.80;17.40
32895;DHT22;19251;49.484;8.260;2023-03-01T09:45:50;7.00;17.30
32895;DHT22;19251;49.484;8.260;2023-03-01T09:50:56;6.90;16.50
32895;DHT22;19251;49.484;8.260;2023-03-01T09:55:59;7.00;16.90
32895;DHT22;19251;49.484;8.260;2023-03-01T10:01:06;7.30;17.00
32895;DHT22;19251;49.484;8.260;2023-03-01T10:06:14;7.20;16.60
32895;DHT22;19251;49.484;8.260;2023-03-01T10:11:37;7.40;16.10
32895;DHT22;19251;49.484;8.260;2023-03-01T10:21:45;7.60;15.80
32895;DHT22;19251;49.484;8.260;2023-03-01T10:26:50;7.70;15.80
32895;DHT22;19251;49.484;8.260;2023-03-01T10:31:55;7.90;16.00
32895;DHT22;19251;49.484;8.260;2023-03-01T10:37:01;7.90;15.70
32895;DHT22;19251;49.484;8.260;2023-03-01T10:42:04;8.40;15.80
32895;DHT22;19251;49.484;8.260;2023-03-01T10:47:12;8.20;14.50
32895;DHT22;19251;49.484;8.260;2023-03-01T10:52:18;8.40;15.20
32895;DHT22;19251;49.484;8.260;2023-03-01T10:57:24;8.40;15.00
32895;DHT22;19251;49.484;8.260;2023-03-01T11:02:29;8.80;15.00
32895;DHT22;19251;49.484;8.260;2023-03-01T11:07:32;9.20;13.60
32895;DHT22;19251;49.484;8.260;2023-03-01T11:12:51;9.20;14.20
32895;DHT22;19251;49.484;8.260;2023-03-01T11:17:53;9.60;14.30
32895;DHT22;19251;49.484;8.260;2023-03-01T11:23:14;9.60;13.60
32895;DHT22;19251;49.484;8.260;2023-03-01T11:28:17;9.80;13.20
32895;DHT22;19251;49.484;8.260;2023-03-01T11:33:24;10.00;12.00
32895;DHT22;19251;49.484;8.260;2023-03-01T11:38:32;10.00;11.70
32895;DHT22;19251;49.484;8.260;2023-03-01T11:43:52;10.30;11.40
32895;DHT22;19251;49.484;8.260;2023-03-01T11:59:13;10.90;10.50
32895;DHT22;19251;49.484;8.260;2023-03-01T12:40:32;12.80;7.60
32895;DHT22;19251;49.484;8.260;2023-03-01T12:50:47;13.30;7.20
32895;DHT22;19251;49.484;8.260;2023-03-01T12:55:51;13.50;6.80
32895;DHT22;19251;49.484;8.260;2023-03-01T13:06:15;13.60;6.30
32895;DHT22;19251;49.484;8.260;2023-03-01T13:11:21;13.90;5.50
32895;DHT22;19251;49.484;8.260;2023-03-01T13:21:32;13.80;5.20
32895;DHT22;19251;49.484;8.260;2023-03-01T13:26:53;14.30;4.90
32895;DHT22;19251;49.484;8.260;2023-03-01T13:31:57;14.40;4.00
32895;DHT22;19251;49.484;8.260;2023-03-01T13:37:09;14.70;4.10
32895;DHT22;19251;49.484;8.260;2023-03-01T13:42:29;15.00;4.10
32895;DHT22;19251;49.484;8.260;2023-03-01T13:47:32;14.90;3.60
32895;DHT22;19251;49.484;8.260;2023-03-01T13:52:43;15.10;3.20
32895;DHT22;19251;49.484;8.260;2023-03-01T14:02:58;15.50;2.40
32895;DHT22;19251;49.484;8.260;2023-03-01T14:08:20;15.70;1.90
32895;DHT22;19251;49.484;8.260;2023-03-01T14:13:35;15.80;1.90
32895;DHT22;19251;49.484;8.260;2023-03-01T14:18:47;16.20;1.90
32895;DHT22;19251;49.484;8.260;2023-03-01T14:23:53;16.80;1.40
32895;DHT22;19251;49.484;8.260;2023-03-01T14:28:55;17.00;1.00
32895;DHT22;19251;49.484;8.260;2023-03-01T14:33:58;17.20;1.00
32895;DHT22;19251;49.484;8.260;2023-03-01T14:39:00;17.30;1.00
32895;DHT22;19251;49.484;8.260;2023-03-01T14:44:07;17.60;1.00
32895;DHT22;19251;49.484;8.260;2023-03-01T14:54:19;17.70;1.00
32895;DHT22;19251;49.484;8.260;2023-03-01T14:59:22;17.80;1.00
32895;DHT22;19251;49.484;8.260;2023-03-01T15:04:26;17.90;1.00
32895;DHT22;19251;49.484;8.260;2023-03-01T15:09:36;18.10;1.00
32895;DHT22;19251;49.484;8.260;2023-03-01T15:14:40;18.10;1.00
32895;DHT22;19251;49.484;8.260;2023-03-01T15:19:55;17.90;1.00
32895;DHT22;19251;49.484;8.260;2023-03-01T15:24:58;17.40;1.00
32895;DHT22;19251;49.484;8.260;2023-03-01T15:30:00;16.80;1.00
32895;DHT22;19251;49.484;8.260;2023-03-01T15:40:25;15.50;1.00
32895;DHT22;19251;49.484;8.260;2023-03-01T15:45:33;15.00;1.00
32895;DHT22;19251;49.484;8.260;2023-03-01T15:50:36;14.60;1.00
32895;DHT22;19251;49.484;8.260;2023-03-01T15:55:41;14.30;1.00
32895;DHT22;19251;49.484;8.260;2023-03-01T16:00:44;14.00;1.00
32895;DHT22;19251;49.484;8.260;2023-03-01T16:06:02;13.80;1.00
32895;DHT22;19251;49.484;8.260;2023-03-01T16:11:05;13.60;1.00
32895;DHT22;19251;49.484;8.260;2023-03-01T16:16:11;13.60;1.00
32895;DHT22;19251;49.484;8.260;2023-03-01T16:21:19;13.30;1.00
32895;DHT22;19251;49.484;8.260;2023-03-01T16:26:22;13.30;1.00
32895;DHT22;19251;49.484;8.260;2023-03-01T16:31:24;12.90;1.00
32895;DHT22;19251;49.484;8.260;2023-03-01T16:36:31;12.60;1.00
32895;DHT22;19251;49.484;8.260;2023-03-01T16:41:33;12.70;1.00
32895;DHT22;19251;49.484;8.260;2023-03-01T16:46:35;12.20;1.00
32895;DHT22;19251;49.484;8.260;2023-03-01T16:51:37;12.10;1.00
32895;DHT22;19251;49.484;8.260;2023-03-01T16:56:39;11.90;1.00
32895;DHT22;19251;49.484;8.260;2023-03-01T17:01:41;11.70;1.00
32895;DHT22;19251;49.484;8.260;2023-03-01T17:06:43;11.70;1.00
32895;DHT22;19251;49.484;8.260;2023-03-01T17:11:47;11.60;1.30
32895;DHT22;19251;49.484;8.260;2023-03-01T17:16:49;11.40;1.30
32895;DHT22;19251;49.484;8.260;2023-03-01T17:21:51;11.10;1.20
32895;DHT22;19251;49.484;8.260;2023-03-01T17:26:53;10.80;1.50
32895;DHT22;19251;49.484;8.260;2023-03-01T17:31:55;10.60;1.50
32895;DHT22;19251;49.484;8.260;2023-03-01T17:36:58;10.40;2.00
32895;DHT22;19251;49.484;8.260;2023-03-01T17:42:00;10.40;2.20
32895;DHT22;19251;49.484;8.260;2023-03-01T17:47:03;10.20;2.30
32895;DHT22;19251;49.484;8.260;2023-03-01T17:52:05;10.00;2.50
32895;DHT22;19251;49.484;8.260;2023-03-01T17:57:07;9.70;3.50
32895;DHT22;19251;49.484;8.260;2023-03-01T18:02:11;9.60;4.00
32895;DHT22;19251;49.484;8.260;2023-03-01T18:07:13;9.40;4.10
32895;DHT22;19251;49.484;8.260;2023-03-01T18:12:15;9.30;4.50
32895;DHT22;19251;49.484;8.260;2023-03-01T18:17:21;8.80;4.20
32895;DHT22;19251;49.484;8.260;2023-03-01T18:22:25;8.80;4.80
32895;DHT22;19251;49.484;8.260;2023-03-01T18:27:27;8.40;4.90
32895;DHT22;19251;49.484;8.260;2023-03-01T18:32:29;8.20;4.80
32895;DHT22;19251;49.484;8.260;2023-03-01T18:37:31;8.00;5.10
32895;DHT22;19251;49.484;8.260;2023-03-01T18:42:33;7.90;5.20
32895;DHT22;19251;49.484;8.260;2023-03-01T18:47:35;7.70;5.60
32895;DHT22;19251;49.484;8.260;2023-03-01T18:52:37;7.30;5.40
32895;DHT22;19251;49.484;8.260;2023-03-01T18:57:39;7.20;5.80
32895;DHT22;19251;49.484;8.260;2023-03-01T19:02:41;7.10;5.90
32895;DHT22;19251;49.484;8.260;2023-03-01T19:12:46;6.70;6.90
32895;DHT22;19251;49.484;8.260;2023-03-01T19:22:51;6.60;7.70
32895;DHT22;19251;49.484;8.260;2023-03-01T19:32:55;6.40;8.20
32895;DHT22;19251;49.484;8.260;2023-03-01T19:37:58;6.40;8.40
32895;DHT22;19251;49.484;8.260;2023-03-01T19:43:00;6.30;8.50
32895;DHT22;19251;49.484;8.260;2023-03-01T19:48:02;6.40;8.80
32895;DHT22;19251;49.484;8.260;2023-03-01T19:53:06;6.50;9.10
32895;DHT22;19251;49.484;8.260;2023-03-01T19:58:09;6.30;9.30
32895;DHT22;19251;49.484;8.260;2023-03-01T20:03:11;6.30;9.30
32895;DHT22;19251;49.484;8.260;2023-03-01T20:08:13;6.30;9.30
32895;DHT22;19251;49.484;8.260;2023-03-01T20:13:16;6.20;9.60
32895;DHT22;19251;49.484;8.260;2023-03-01T20:18:21;6.30;9.50
32895;DHT22;19251;49.484;8.260;2023-03-01T20:23:23;6.30;10.00
32895;DHT22;19251;49.484;8.260;2023-03-01T20:28:25;5.90;9.90
32895;DHT22;19251;49.484;8.260;2023-03-01T20:33:27;5.90;10.30
32895;DHT22;19251;49.484;8.260;2023-03-01T20:38:30;6.10;10.80
32895;DHT22;19251;49.484;8.260;2023-03-01T20:43:32;5.90;11.30
32895;DHT22;19251;49.484;8.260;2023-03-01T20:48:34;5.80;11.10
32895;DHT22;19251;49.484;8.260;2023-03-01T20:53:36;5.80;11.50
32895;DHT22;19251;49.484;8.260;2023-03-01T20:58:39;6.00;11.70
32895;DHT22;19251;49.484;8.260;2023-03-01T21:03:41;6.00;11.40
32895;DHT22;19251;49.484;8.260;2023-03-01T21:08:44;5.90;11.50
32895;DHT22;19251;49.484;8.260;2023-03-01T21:13:46;5.70;11.30
32895;DHT22;19251;49.484;8.260;2023-03-01T21:18:48;5.60;11.90
32895;DHT22;19251;49.484;8.260;2023-03-01T21:23:50;5.60;12.20
32895;DHT22;19251;49.484;8.260;2023-03-01T21:28:56;5.70;11.80
32895;DHT22;19251;49.484;8.260;2023-03-01T21:33:59;5.50;12.30
32895;DHT22;19251;49.484;8.260;2023-03-01T21:39:02;5.40;12.50
32895;DHT22;19251;49.484;8.260;2023-03-01T21:44:04;5.30;12.60
32895;DHT22;19251;49.484;8.260;2023-03-01T21:49:08;5.20;12.40
32895;DHT22;19251;49.484;8.260;2023-03-01T21:54:11;5.20;12.50
32895;DHT22;19251;49.484;8.260;2023-03-01T21:59:20;5.20;12.70
32895;DHT22;19251;49.484;8.260;2023-03-01T22:04:23;5.10;12.60
32895;DHT22;19251;49.484;8.260;2023-03-01T22:09:26;5.00;12.20
32895;DHT22;19251;49.484;8.260;2023-03-01T22:14:28;4.90;12.80
32895;DHT22;19251;49.484;8.260;2023-03-01T22:19:31;4.80;12.90
32895;DHT22;19251;49.484;8.260;2023-03-01T22:24:34;4.70;12.90
32895;DHT22;19251;49.484;8.260;2023-03-01T22:29:36;4.80;13.10
32895;DHT22;19251;49.484;8.260;2023-03-01T22:34:38;4.50;12.90
32895;DHT22;19251;49.484;8.260;2023-03-01T22:39:40;4.60;13.30
32895;DHT22;19251;49.484;8.260;2023-03-01T22:44:42;4.30;13.30
32895;DHT22;19251;49.484;8.260;2023-03-01T22:49:44;4.50;13.70
32895;DHT22;19251;49.484;8.260;2023-03-01T22:54:46;4.20;13.80
32895;DHT22;19251;49.484;8.260;2023-03-01T22:59:48;4.20;14.00
32895;DHT22;19251;49.484;8.260;2023-03-01T23:04:50;4.20;14.10
32895;DHT22;19251;49.484;8.260;2023-03-01T23:09:54;4.20;14.10
32895;DHT22;19251;49.484;8.260;2023-03-01T23:15:03;4.20;14.50
32895;DHT22;19251;49.484;8.260;2023-03-01T23:20:05;4.10;14.60
32895;DHT22;19251;49.484;8.260;2023-03-01T23:25:12;4.20;14.90
32895;DHT22;19251;49.484;8.260;2023-03-01T23:30:16;4.30;15.10
32895;DHT22;19251;49.484;8.260;2023-03-01T23:35:18;4.20;15.20
32895;DHT22;19251;49.484;8.260;2023-03-01T23:40:20;4.30;15.30
32895;DHT22;19251;49.484;8.260;2023-03-01T23:45:22;4.10;15.20
32895;DHT22;19251;49.484;8.260;2023-03-01T23:50:24;4.00;15.30
32895;DHT22;19251;49.484;8.260;2023-03-01T23:55:26;4.20;15.40
